Orbital elements of BREEZE-M DEB
| Launched | 27 February 2006 |
| Flight ended | – |
| Launch site | Tyuratam Missile and Space Center, Kazakhstan (Also known as Baikonur Cosmodrome) |
| Owner | Commonwealth of Independent States (former USSR) |
| NORAD ID | 32038 |
| Date fetched |
Epoch osculation |
Inc. [°] |
Ecc. | RA asc node [hr] |
Arg Peri. [°] |
Mean anom [°] |
Mean motion [rev/day] |
Abs. mag |
| Date fetched |
Epoch osculation |
Inc. [°] |
Ecc. | RA asc node [hr] |
Arg Peri. [°] |
Mean anom [°] |
Mean motion [rev/day] |
Abs. mag |
| 2026 May 09 17:57 | 2026 May 04 07:08:29 | 51.6636 | 0.50789 | 9.0204 | 42.2576 | 347.3992 | 5.30782 | – |
| 2026 May 08 17:57 | 2026 May 04 07:08:29 | 51.6636 | 0.50789 | 9.0204 | 42.2576 | 347.3992 | 5.30782 | – |
| 2026 May 07 17:58 | 2026 May 04 07:08:29 | 51.6636 | 0.50789 | 9.0204 | 42.2576 | 347.3992 | 5.30782 | – |
| 2026 May 06 17:57 | 2026 May 04 07:08:29 | 51.6636 | 0.50789 | 9.0204 | 42.2576 | 347.3992 | 5.30782 | – |
| 2026 May 05 17:57 | 2026 May 04 07:08:29 | 51.6636 | 0.50789 | 9.0204 | 42.2576 | 347.3992 | 5.30782 | – |
| 2026 May 04 17:57 | 2026 Apr 30 12:43:02 | 51.6630 | 0.50784 | 9.2059 | 40.1815 | 347.3992 | 5.30782 | – |
| 2026 May 03 17:57 | 2026 Apr 30 12:43:02 | 51.6630 | 0.50784 | 9.2059 | 40.1815 | 347.3992 | 5.30782 | – |
| 2026 May 02 17:57 | 2026 Apr 30 12:43:02 | 51.6630 | 0.50784 | 9.2059 | 40.1815 | 347.3992 | 5.30782 | – |
| 2026 May 01 17:56 | 2026 Apr 30 12:43:02 | 51.6630 | 0.50784 | 9.2059 | 40.1815 | 347.3992 | 5.30782 | – |
| 2026 Apr 30 17:56 | 2026 Apr 30 12:43:02 | 51.6630 | 0.50784 | 9.2059 | 40.1815 | 347.3992 | 5.30782 | – |
| 2026 Apr 29 17:57 | 2026 Apr 22 05:46:43 | 51.6604 | 0.50772 | 9.6139 | 35.6159 | 347.3992 | 5.30782 | – |
| 2026 Apr 28 17:56 | 2026 Apr 22 05:46:43 | 51.6604 | 0.50772 | 9.6139 | 35.6159 | 347.3992 | 5.30782 | – |
| 2026 Apr 27 17:58 | 2026 Apr 22 05:46:43 | 51.6604 | 0.50772 | 9.6139 | 35.6159 | 347.3992 | 5.30782 | – |
| 2026 Apr 26 17:58 | 2026 Apr 22 05:46:43 | 51.6604 | 0.50772 | 9.6139 | 35.6159 | 347.3992 | 5.30782 | – |
| 2026 Apr 25 17:58 | 2026 Apr 22 05:46:43 | 51.6604 | 0.50772 | 9.6139 | 35.6159 | 347.3992 | 5.30782 | – |
| 2026 Apr 24 17:59 | 2026 Apr 22 05:46:43 | 51.6604 | 0.50772 | 9.6139 | 35.6159 | 347.3992 | 5.30782 | – |
| 2026 Apr 23 17:57 | 2026 Apr 16 14:08:12 | 51.6582 | 0.50763 | 9.8919 | 32.5049 | 347.3992 | 5.30782 | – |
| 2026 Apr 22 17:57 | 2026 Apr 16 14:08:12 | 51.6582 | 0.50763 | 9.8919 | 32.5049 | 347.3992 | 5.30782 | – |
| 2026 Apr 21 17:57 | 2026 Apr 16 14:08:12 | 51.6582 | 0.50763 | 9.8919 | 32.5049 | 347.3992 | 5.30782 | – |
| 2026 Apr 20 17:57 | 2026 Apr 16 14:08:12 | 51.6582 | 0.50763 | 9.8919 | 32.5049 | 347.3992 | 5.30782 | – |
| 2026 Apr 19 17:58 | 2026 Apr 16 14:08:12 | 51.6582 | 0.50763 | 9.8919 | 32.5049 | 347.3992 | 5.30782 | – |
| 2026 Apr 18 17:56 | 2026 Apr 12 10:39:52 | 51.6565 | 0.50758 | 10.0958 | 30.2257 | 347.3992 | 5.30782 | – |
| 2026 Apr 16 17:57 | 2026 Apr 12 10:39:52 | 51.6565 | 0.50758 | 10.0958 | 30.2257 | 347.3992 | 5.30782 | – |
| 2026 Apr 14 17:57 | 2026 Apr 12 10:39:52 | 51.6565 | 0.50758 | 10.0958 | 30.2257 | 347.3992 | 5.30782 | – |
| 2026 Apr 13 17:57 | 2026 Apr 12 10:39:52 | 51.6565 | 0.50758 | 10.0958 | 30.2257 | 347.3992 | 5.30782 | – |
| 2026 Apr 12 17:57 | 2026 Apr 08 07:11:30 | 51.6557 | 0.50753 | 10.2998 | 27.9461 | 347.3992 | 5.30782 | – |